Terminal Aerodrome Forecast
Issued by NWS Caribou, ME

Home | Current Version | Previous Version | Text Only | Print | Product List | Glossary On
Versions: 1 2 3 4 5 6 7 8 9 10 11 12 13 14 15 16
000
FTUS41 KCAR 220800 AAB
TAFCAR
TAF AMD
KCAR 220851Z 2209/2306 14004KT 3/4SM BR BKN004
     FM221100 20005KT 3SM -SHRA OVC008
     FM221300 21008KT 6SM -SHRA BKN015
     FM221500 23011KT P6SM BKN025
     FM221600 24013KT P6SM BKN050=

USA.gov is the U.S. government's official web portal to all federal, state and local government web resources and services.